Time;durP1;ratioP1;P1;durP2;ratioP2;P2;SDS_P1;SDS_P2;PMS_P1;PMS_P2;Temp;Humidity;BMP_temperature;BMP_pressure;BME280_temperature;BME280_humidity;BME280_pressure;Samples;Min_cycle;Max_cycle;Signal;HPM_P1;HPM_P2
2021/12/16 00:01:42;;;;;;;203.60;117.63;;;3.10;99.90;;;;;;4993419;28;20141;-78
2021/12/16 00:09:01;;;;;;;282.15;141.73;;;3.00;99.90;;;;;;4992890;28;20125;-78
2021/12/16 00:33:18;;;;;;;284.40;139.85;;;3.00;99.90;;;;;;4995928;28;20033;-79
2021/12/16 00:35:49;;;;;;;309.52;149.63;;;3.00;99.90;;;;;;4995661;28;20469;-78
2021/12/16 00:38:16;;;;;;;399.98;168.57;;;3.00;99.90;;;;;;4996690;28;20035;-79
2021/12/16 00:40:43;;;;;;;418.70;183.88;;;3.00;99.90;;;;;;4996553;28;20057;-79
2021/12/16 00:43:28;;;;;;;326.15;152.40;;;3.00;99.90;;;;;;4995338;28;20031;-78
2021/12/16 00:46:12;;;;;;;378.77;175.05;;;2.90;99.90;;;;;;4996969;28;20041;-77
2021/12/16 00:56:33;;;;;;;474.95;192.32;;;2.80;99.90;;;;;;4995042;28;20061;-80
2021/12/16 00:59:02;;;;;;;384.88;175.07;;;2.70;99.90;;;;;;4994221;28;20022;-78
2021/12/16 01:07:49;;;;;;;434.02;169.95;;;2.70;99.90;;;;;;4994986;28;20046;-79
2021/12/16 01:49:32;;;;;;;406.77;137.50;;;2.80;99.90;;;;;;4938220;29;20043;-78
2021/12/16 01:54:48;;;;;;;424.33;129.80;;;2.70;99.90;;;;;;4937552;29;20031;-74
2021/12/16 01:57:24;;;;;;;378.88;125.03;;;2.70;99.90;;;;;;4938002;29;20123;-78
2021/12/16 02:00:06;;;;;;;270.25;106.57;;;2.70;99.90;;;;;;4944838;29;20028;-77
2021/12/16 02:02:49;;;;;;;420.50;136.38;;;2.70;99.90;;;;;;4936934;29;20035;-78
2021/12/16 02:05:55;;;;;;;368.48;124.90;;;2.70;99.90;;;;;;4939690;29;20046;-73
2021/12/16 02:08:25;;;;;;;363.90;121.03;;;2.70;99.90;;;;;;4925171;29;20052;-74
2021/12/16 02:11:39;;;;;;;292.50;109.53;;;2.70;99.90;;;;;;4932636;29;20032;-77
2021/12/16 02:28:06;;;;;;;208.98;92.18;;;2.80;99.90;;;;;;4991589;28;20026;-78
2021/12/16 02:35:58;;;;;;;293.75;104.38;;;2.80;99.90;;;;;;4990967;28;20022;-76
2021/12/16 02:38:28;;;;;;;258.08;99.55;;;2.80;99.90;;;;;;4991969;28;20039;-80
2021/12/16 02:40:55;;;;;;;357.08;115.22;;;2.90;99.90;;;;;;4972879;28;20039;-79
2021/12/16 02:43:50;;;;;;;320.75;107.18;;;2.90;99.90;;;;;;5003619;28;20503;-77
2021/12/16 02:48:41;;;;;;;375.73;113.95;;;2.90;99.90;;;;;;4992136;28;20126;-78
2021/12/16 02:51:25;;;;;;;225.23;88.00;;;2.90;99.90;;;;;;4993097;28;20061;-76
2021/12/16 02:53:57;;;;;;;231.43;91.25;;;2.90;99.90;;;;;;4992664;28;20538;-79
2021/12/16 02:56:24;;;;;;;284.23;99.35;;;2.90;99.90;;;;;;4991948;28;20034;-77
2021/12/16 02:58:53;;;;;;;209.88;82.07;;;2.90;99.90;;;;;;4992195;28;20034;-78
2021/12/16 03:01:48;;;;;;;219.02;80.50;;;2.90;99.90;;;;;;5007897;28;20432;-77
2021/12/16 03:04:17;;;;;;;250.30;85.25;;;3.00;99.90;;;;;;4992225;28;20026;-77
2021/12/16 03:06:45;;;;;;;257.95;89.93;;;3.00;99.90;;;;;;4992109;28;20037;-76
2021/12/16 03:09:16;;;;;;;330.02;99.38;;;3.00;99.90;;;;;;4992677;28;20050;-79
2021/12/16 03:12:16;;;;;;;241.13;83.13;;;3.00;99.90;;;;;;4989597;28;20105;-80
2021/12/16 03:14:40;;;;;;;168.77;69.75;;;3.00;99.90;;;;;;4990346;28;20060;-79
2021/12/16 03:17:22;;;;;;;171.55;70.80;;;3.00;99.90;;;;;;4990107;28;20034;-79
2021/12/16 03:22:42;;;;;;;173.27;69.15;;;3.00;99.90;;;;;;4991494;28;20030;-79
2021/12/16 03:28:13;;;;;;;416.02;119.13;;;3.00;99.90;;;;;;4987997;28;20054;-80
2021/12/16 03:33:50;;;;;;;;;;;3.00;99.90;;;;;;4990150;28;20022;-80
2021/12/16 03:38:50;;;;;;;;;;;3.00;99.90;;;;;;4991477;28;20058;-79
2021/12/16 03:41:16;;;;;;;247.50;78.97;;;3.00;99.90;;;;;;5006870;28;19940;-77
2021/12/16 03:43:45;;;;;;;208.90;79.68;;;3.00;99.90;;;;;;5007380;28;20373;-77
2021/12/16 03:48:56;;;;;;;160.13;70.50;;;3.10;99.90;;;;;;4992385;28;20026;-77
2021/12/16 03:51:35;;;;;;;248.57;87.30;;;3.10;99.90;;;;;;4981761;28;20741;-77
2021/12/16 03:54:33;;;;;;;295.65;89.85;;;3.10;99.90;;;;;;4991652;28;20117;-77
2021/12/16 03:57:05;;;;;;;232.77;77.78;;;3.00;99.90;;;;;;4936147;29;20425;-77
2021/12/16 03:59:35;;;;;;;246.85;87.78;;;3.00;99.90;;;;;;4936132;29;20031;-78
2021/12/16 04:02:29;;;;;;;276.48;85.60;;;2.90;99.90;;;;;;4935681;29;20039;-78
2021/12/16 04:04:57;;;;;;;190.45;73.30;;;2.90;99.90;;;;;;4932805;29;20143;-78
2021/12/16 04:07:31;;;;;;;274.25;86.80;;;2.90;99.90;;;;;;4951728;28;20031;-78
2021/12/16 04:10:22;;;;;;;358.27;97.80;;;2.80;99.90;;;;;;4938216;29;20071;-78
2021/12/16 04:12:52;;;;;;;286.60;92.65;;;2.80;99.90;;;;;;4951832;29;20031;-78
2021/12/16 04:15:18;;;;;;;178.70;67.65;;;2.90;99.90;;;;;;4935645;29;20042;-76
2021/12/16 04:17:49;;;;;;;259.02;75.22;;;2.90;99.90;;;;;;4936039;29;20090;-77
2021/12/16 04:20:15;;;;;;;280.65;78.90;;;2.80;99.90;;;;;;4936130;29;20085;-77
2021/12/16 04:22:44;;;;;;;307.13;93.28;;;2.80;99.90;;;;;;4935923;29;20063;-77
2021/12/16 04:25:27;;;;;;;233.80;73.30;;;2.80;99.90;;;;;;4935905;29;20146;-77
2021/12/16 04:27:59;;;;;;;292.48;87.78;;;2.80;99.90;;;;;;4935124;29;20032;-78
2021/12/16 04:30:30;;;;;;;274.50;85.97;;;2.80;99.90;;;;;;4951427;29;20051;-78
2021/12/16 04:32:58;;;;;;;234.75;73.47;;;2.80;99.90;;;;;;4941454;28;20023;-77
2021/12/16 04:35:29;;;;;;;241.40;77.40;;;2.80;99.90;;;;;;4977066;28;20030;-78
2021/12/16 04:37:55;;;;;;;246.95;77.25;;;2.80;99.90;;;;;;4992424;28;20033;-77
2021/12/16 04:40:26;;;;;;;178.82;63.17;;;2.80;99.90;;;;;;4991167;28;20129;-76
2021/12/16 04:43:00;;;;;;;315.60;83.38;;;2.80;99.90;;;;;;4991062;28;20041;-77
2021/12/16 04:45:31;;;;;;;306.10;84.43;;;2.80;99.90;;;;;;4991367;28;20022;-77
2021/12/16 04:47:58;;;;;;;189.10;71.40;;;2.80;99.90;;;;;;4991097;28;20030;-77
2021/12/16 04:50:26;;;;;;;199.38;72.93;;;2.90;99.90;;;;;;4991618;28;20542;-79
2021/12/16 04:52:52;;;;;;;146.43;62.22;;;2.90;99.90;;;;;;4992372;28;20029;-79
2021/12/16 04:55:20;;;;;;;220.02;75.35;;;2.90;99.90;;;;;;4990467;28;20054;-78
2021/12/16 04:57:48;;;;;;;196.95;76.30;;;2.90;99.90;;;;;;4989775;28;20037;-76
2021/12/16 05:00:18;;;;;;;195.38;71.70;;;2.80;99.90;;;;;;4990810;28;20042;-78
2021/12/16 05:02:50;;;;;;;174.15;66.28;;;2.80;99.90;;;;;;4989658;28;20326;-78
2021/12/16 05:05:35;;;;;;;176.02;64.35;;;2.80;99.90;;;;;;4986663;28;20034;-75
2021/12/16 05:08:02;;;;;;;176.80;66.57;;;2.80;99.90;;;;;;4991388;28;20049;-76
2021/12/16 05:10:36;;;;;;;191.48;71.78;;;2.80;99.90;;;;;;4990524;28;20042;-79
2021/12/16 05:13:18;;;;;;;149.00;65.65;;;2.80;99.90;;;;;;4990779;28;20038;-76
2021/12/16 05:15:45;;;;;;;210.40;78.35;;;2.80;99.90;;;;;;4995395;28;20077;-77
2021/12/16 05:18:20;;;;;;;156.80;67.85;;;2.80;99.90;;;;;;4995606;28;20030;-77
2021/12/16 05:20:53;;;;;;;194.05;75.97;;;2.80;99.90;;;;;;4995256;28;20046;-79
2021/12/16 05:28:45;;;;;;;256.20;96.47;;;2.80;99.90;;;;;;4996836;28;20062;-78
2021/12/16 05:31:13;;;;;;;240.32;87.05;;;2.70;99.90;;;;;;4994919;28;20038;-78
2021/12/16 05:33:43;;;;;;;219.05;77.35;;;2.70;99.90;;;;;;4995152;28;20495;-79
2021/12/16 05:36:10;;;;;;;206.30;76.45;;;2.80;99.90;;;;;;4994593;28;20026;-78
2021/12/16 05:38:36;;;;;;;110.03;55.50;;;2.80;99.90;;;;;;4995635;28;20564;-78
2021/12/16 05:41:05;;;;;;;148.90;62.20;;;2.90;99.90;;;;;;4996060;28;20403;-80
2021/12/16 05:43:36;;;;;;;;;;;2.90;99.90;;;;;;4995777;28;20498;-79
2021/12/16 05:46:03;;;;;;;164.95;61.60;;;2.90;99.90;;;;;;4996466;28;19914;-80
2021/12/16 05:48:32;;;;;;;111.97;55.30;;;2.80;99.90;;;;;;4994471;28;20030;-80
2021/12/16 05:51:03;;;;;;;155.00;66.82;;;2.90;99.90;;;;;;4994104;28;20033;-78
2021/12/16 05:53:30;;;;;;;123.72;61.30;;;2.80;99.90;;;;;;4994082;28;20080;-81
2021/12/16 05:55:57;;;;;;;151.68;70.72;;;2.90;99.90;;;;;;4994482;28;20034;-79
2021/12/16 05:58:26;;;;;;;121.22;59.95;;;2.90;99.90;;;;;;4993150;28;20030;-79
2021/12/16 06:00:57;;;;;;;135.30;66.95;;;2.90;99.90;;;;;;4993986;28;20039;-79
2021/12/16 06:03:26;;;;;;;124.00;66.47;;;2.90;99.90;;;;;;4987976;28;20468;-76
2021/12/16 06:05:53;;;;;;;117.30;57.78;;;2.90;99.90;;;;;;4986738;28;20054;-79
2021/12/16 06:08:19;;;;;;;129.43;62.25;;;2.90;99.90;;;;;;4984533;28;20137;-79
2021/12/16 06:13:17;;;;;;;140.43;67.68;;;2.90;99.90;;;;;;4995252;28;20376;-79
2021/12/16 06:22:27;;;;;;;147.40;68.68;;;2.90;99.90;;;;;;4994951;28;20025;-78
2021/12/16 06:29:13;;;;;;;127.75;62.75;;;2.90;99.90;;;;;;4994703;28;20018;-79
2021/12/16 06:31:39;;;;;;;121.38;64.82;;;2.90;99.90;;;;;;4994522;28;20030;-79
2021/12/16 06:34:05;;;;;;;157.45;72.95;;;3.00;99.90;;;;;;4994372;28;20022;-78
2021/12/16 06:36:31;;;;;;;138.63;68.53;;;2.90;99.90;;;;;;4994854;28;20061;-79
2021/12/16 06:38:58;;;;;;;127.40;64.70;;;3.00;99.90;;;;;;4993153;28;20022;-78
2021/12/16 06:41:44;;;;;;;129.75;67.40;;;3.00;99.90;;;;;;4994309;28;20046;-79
2021/12/16 06:44:31;;;;;;;148.43;68.00;;;3.10;99.90;;;;;;5009195;28;20030;-77
2021/12/16 06:47:07;;;;;;;138.63;64.32;;;3.00;99.90;;;;;;4994648;28;20038;-79
2021/12/16 06:49:35;;;;;;;125.22;66.70;;;3.00;99.90;;;;;;4979479;28;20092;-79
2021/12/16 06:52:04;;;;;;;130.02;63.75;;;3.00;99.90;;;;;;4994377;28;20042;-78
2021/12/16 06:54:39;;;;;;;115.32;63.95;;;3.10;99.90;;;;;;4994088;28;20027;-78
2021/12/16 06:57:21;;;;;;;119.40;62.67;;;3.10;99.90;;;;;;4994116;28;20469;-79
2021/12/16 07:00:06;;;;;;;114.10;63.22;;;3.10;99.90;;;;;;4994091;28;20023;-79
2021/12/16 07:05:19;;;;;;;130.55;66.07;;;3.10;99.90;;;;;;4993913;28;20046;-78
2021/12/16 07:07:45;;;;;;;124.32;62.85;;;3.20;99.90;;;;;;4993450;28;20485;-78
2021/12/16 07:10:14;;;;;;;154.65;74.07;;;3.20;99.90;;;;;;4990165;28;20088;-78
2021/12/16 07:12:46;;;;;;;134.45;69.97;;;3.20;99.90;;;;;;4992872;28;20033;-77
2021/12/16 07:15:14;;;;;;;148.63;69.53;;;3.20;99.90;;;;;;4993004;28;20018;-78
2021/12/16 07:17:41;;;;;;;132.65;64.45;;;3.20;99.90;;;;;;4994041;28;20033;-77
2021/12/16 07:20:10;;;;;;;116.65;62.05;;;3.20;99.90;;;;;;4993572;28;20077;-77
2021/12/16 07:22:37;;;;;;;124.05;63.13;;;3.20;99.90;;;;;;4993678;28;20101;-78
2021/12/16 07:25:05;;;;;;;116.13;61.78;;;3.20;99.90;;;;;;4993447;28;20106;-78
2021/12/16 07:27:35;;;;;;;133.90;68.20;;;3.30;99.90;;;;;;4992866;28;20022;-77
2021/12/16 07:30:04;;;;;;;133.80;66.38;;;3.20;99.90;;;;;;4993241;28;20018;-78
2021/12/16 07:32:30;;;;;;;133.65;66.53;;;3.20;99.90;;;;;;4991085;28;20026;-77
2021/12/16 07:34:56;;;;;;;117.55;63.30;;;3.30;99.90;;;;;;4992338;28;20098;-78
2021/12/16 07:37:22;;;;;;;111.57;60.78;;;3.30;99.90;;;;;;4992254;28;20030;-77
2021/12/16 07:39:49;;;;;;;115.97;62.83;;;3.30;99.90;;;;;;4992697;28;20030;-78
2021/12/16 07:42:24;;;;;;;109.18;61.28;;;3.40;99.90;;;;;;4992915;28;20527;-77
2021/12/16 07:44:50;;;;;;;119.47;61.40;;;3.40;99.90;;;;;;4993163;28;20038;-78
2021/12/16 07:47:16;;;;;;;117.63;63.08;;;3.40;99.90;;;;;;4992854;28;20022;-77
2021/12/16 07:49:43;;;;;;;108.80;62.08;;;3.40;99.90;;;;;;4992516;28;20018;-77
2021/12/16 07:52:13;;;;;;;108.13;62.03;;;3.50;99.90;;;;;;4993022;28;20480;-78
2021/12/16 07:54:40;;;;;;;110.72;63.92;;;3.50;99.90;;;;;;4992852;28;20488;-78
2021/12/16 07:57:06;;;;;;;120.65;62.70;;;3.50;99.90;;;;;;4992208;28;20057;-78
2021/12/16 07:59:35;;;;;;;110.18;63.50;;;3.60;99.90;;;;;;4990752;28;20030;-78
2021/12/16 08:02:03;;;;;;;110.60;65.35;;;3.60;99.90;;;;;;4991710;28;20927;-78
2021/12/16 08:04:31;;;;;;;115.25;63.05;;;3.60;99.90;;;;;;4989422;28;20026;-78
2021/12/16 08:07:04;;;;;;;122.10;66.68;;;3.70;99.90;;;;;;4992085;28;20026;-78
2021/12/16 08:09:32;;;;;;;97.47;60.75;;;3.60;99.90;;;;;;4989702;28;20129;-79
2021/12/16 08:11:58;;;;;;;109.55;63.38;;;3.70;99.90;;;;;;4992514;28;20038;-78
2021/12/16 08:14:25;;;;;;;113.22;65.40;;;3.70;99.90;;;;;;4992617;28;20065;-79
2021/12/16 08:16:51;;;;;;;125.72;74.55;;;3.70;99.90;;;;;;4992997;28;20309;-78
2021/12/16 08:19:17;;;;;;;118.80;69.32;;;3.70;99.90;;;;;;4992519;28;20031;-78
2021/12/16 08:21:43;;;;;;;113.10;69.35;;;3.80;99.90;;;;;;4992687;28;20038;-78
2021/12/16 08:24:16;;;;;;;116.53;72.00;;;3.80;99.90;;;;;;4992250;28;20542;-78
2021/12/16 08:26:43;;;;;;;;;;;3.90;99.90;;;;;;4992660;28;20035;-77
2021/12/16 08:29:09;;;;;;;114.72;72.80;;;3.90;99.90;;;;;;4992829;28;20383;-79
2021/12/16 08:31:35;;;;;;;108.50;67.57;;;3.90;99.90;;;;;;4992429;28;20476;-78
2021/12/16 08:34:03;;;;;;;97.88;64.90;;;4.00;99.90;;;;;;4992987;28;20026;-77
2021/12/16 08:36:29;;;;;;;116.63;65.57;;;4.00;99.90;;;;;;4991654;28;20034;-77
2021/12/16 08:38:56;;;;;;;99.28;63.72;;;4.10;99.90;;;;;;4992525;28;20035;-78
2021/12/16 08:41:32;;;;;;;105.82;65.35;;;4.10;99.90;;;;;;4992337;28;20042;-78
2021/12/16 08:43:59;;;;;;;100.93;64.68;;;4.20;99.90;;;;;;4991724;28;20029;-77
2021/12/16 08:46:27;;;;;;;99.82;65.22;;;4.30;99.90;;;;;;4981351;28;20043;-77
2021/12/16 08:48:54;;;;;;;95.60;62.08;;;4.30;99.90;;;;;;4973321;28;20027;-77
2021/12/16 08:51:25;;;;;;;98.63;62.33;;;4.30;99.90;;;;;;4981538;28;20022;-78
2021/12/16 08:53:53;;;;;;;88.90;58.70;;;4.40;99.90;;;;;;4986745;28;20321;-77
2021/12/16 08:56:19;;;;;;;96.18;61.65;;;4.30;99.90;;;;;;4995177;28;20027;-78
2021/12/16 08:58:45;;;;;;;87.68;56.90;;;4.30;99.90;;;;;;4996501;28;20365;-78
2021/12/16 09:01:16;;;;;;;89.88;57.05;;;4.40;99.90;;;;;;4994885;28;20045;-77
2021/12/16 09:03:44;;;;;;;83.97;53.20;;;4.40;99.90;;;;;;4994805;28;20022;-77
2021/12/16 09:06:10;;;;;;;81.85;51.80;;;4.40;99.90;;;;;;4994802;28;20527;-76
2021/12/16 09:08:37;;;;;;;89.38;61.25;;;4.50;99.90;;;;;;4995100;28;20519;-78
2021/12/16 09:11:07;;;;;;;83.07;54.78;;;4.50;99.90;;;;;;4996232;28;20035;-77
2021/12/16 09:13:36;;;;;;;105.15;60.53;;;4.60;99.90;;;;;;4995661;28;20022;-76
2021/12/16 09:16:05;;;;;;;90.97;56.10;;;4.60;99.90;;;;;;4995758;28;20477;-76
2021/12/16 09:18:34;;;;;;;86.97;51.58;;;4.70;99.90;;;;;;4994733;28;20049;-76
2021/12/16 09:21:04;;;;;;;87.07;53.92;;;4.60;99.90;;;;;;4995596;28;20039;-76
2021/12/16 09:23:30;;;;;;;96.53;53.95;;;4.70;99.90;;;;;;4996103;28;20492;-77
2021/12/16 09:25:56;;;;;;;84.28;56.60;;;4.80;99.90;;;;;;4996198;28;20510;-77
2021/12/16 09:28:25;;;;;;;77.93;53.25;;;4.80;99.90;;;;;;4996008;28;20022;-77
2021/12/16 09:30:55;;;;;;;81.63;50.53;;;4.70;99.90;;;;;;4996275;28;20129;-77
2021/12/16 09:33:25;;;;;;;84.10;57.17;;;4.70;99.90;;;;;;4995716;28;20483;-77
2021/12/16 09:35:54;;;;;;;90.13;56.08;;;4.80;99.90;;;;;;4995702;28;20495;-77
2021/12/16 09:38:21;;;;;;;83.22;53.03;;;4.90;99.90;;;;;;4995722;28;20472;-77
2021/12/16 09:40:52;;;;;;;71.38;46.97;;;5.00;99.90;;;;;;4995222;28;20073;-76
2021/12/16 09:43:25;;;;;;;74.70;45.92;;;5.00;99.90;;;;;;4995491;28;20057;-77
2021/12/16 09:45:58;;;;;;;69.97;43.38;;;5.20;99.90;;;;;;4995924;28;20042;-77
2021/12/16 09:48:25;;;;;;;77.18;43.50;;;5.20;99.90;;;;;;4995787;28;20118;-78
2021/12/16 09:50:52;;;;;;;72.43;44.28;;;5.30;99.90;;;;;;4995819;28;20034;-78
2021/12/16 09:53:19;;;;;;;69.05;42.78;;;5.30;99.90;;;;;;4994957;28;20014;-77
2021/12/16 09:55:50;;;;;;;66.15;41.63;;;5.40;99.90;;;;;;4995437;28;20027;-77
2021/12/16 09:58:17;;;;;;;64.65;41.70;;;5.40;99.90;;;;;;4994275;28;20026;-77
2021/12/16 10:00:43;;;;;;;66.07;43.17;;;5.40;99.90;;;;;;4995289;28;20030;-76
2021/12/16 10:03:09;;;;;;;62.25;40.92;;;5.50;99.90;;;;;;4995166;28;20488;-77
2021/12/16 10:05:35;;;;;;;61.65;40.58;;;5.60;99.90;;;;;;4995148;28;20599;-77
2021/12/16 10:08:04;;;;;;;59.35;39.97;;;5.60;99.90;;;;;;4994197;28;20505;-77
2021/12/16 10:10:31;;;;;;;63.22;42.00;;;5.60;99.90;;;;;;4994100;28;20053;-77
2021/12/16 10:13:00;;;;;;;67.78;42.63;;;5.60;99.90;;;;;;4994997;28;20066;-77
2021/12/16 10:18:10;;;;;;;65.43;43.45;;;5.60;99.90;;;;;;4995356;28;20412;-77
2021/12/16 10:20:47;;;;;;;63.33;38.58;;;5.60;99.90;;;;;;4994691;28;20120;-77
2021/12/16 10:23:24;;;;;;;65.20;40.90;;;5.70;99.90;;;;;;4992159;28;20031;-76
2021/12/16 10:25:57;;;;;;;70.78;41.90;;;5.70;99.90;;;;;;4989175;28;20030;-77
2021/12/16 10:28:35;;;;;;;61.80;40.40;;;5.70;99.90;;;;;;4994149;28;20534;-77
2021/12/16 10:31:16;;;;;;;63.53;39.90;;;5.80;99.90;;;;;;4994280;28;20042;-77
2021/12/16 10:33:42;;;;;;;58.95;39.78;;;5.70;99.90;;;;;;4994149;28;20026;-77
2021/12/16 10:36:35;;;;;;;69.75;42.03;;;5.90;99.90;;;;;;4994727;28;20027;-77
2021/12/16 10:39:09;;;;;;;66.15;39.97;;;5.80;99.90;;;;;;4994011;28;20030;-77
2021/12/16 10:41:42;;;;;;;57.42;40.13;;;5.80;99.90;;;;;;4994512;28;20045;-77
2021/12/16 10:44:21;;;;;;;61.00;40.57;;;5.90;99.90;;;;;;4993957;28;20062;-77
2021/12/16 10:47:09;;;;;;;67.85;43.53;;;5.80;99.90;;;;;;4994823;28;20338;-76
2021/12/16 10:49:42;;;;;;;66.50;42.83;;;5.90;99.90;;;;;;4994578;28;20464;-76
2021/12/16 10:52:17;;;;;;;67.90;44.30;;;6.00;99.90;;;;;;4994245;28;20031;-76
2021/12/16 10:54:49;;;;;;;69.05;44.15;;;6.00;99.90;;;;;;4994237;28;20027;-77
2021/12/16 10:57:25;;;;;;;67.75;42.90;;;5.90;99.90;;;;;;4994202;28;20034;-75
2021/12/16 11:00:12;;;;;;;61.70;42.05;;;6.00;99.90;;;;;;4993787;28;20022;-77
2021/12/16 11:02:40;;;;;;;66.88;42.13;;;6.10;99.90;;;;;;4994435;28;20396;-76
2021/12/16 11:05:22;;;;;;;58.90;39.55;;;5.90;99.90;;;;;;4994487;28;20026;-77
2021/12/16 11:07:59;;;;;;;59.70;41.15;;;6.00;99.90;;;;;;4994309;28;20067;-76
2021/12/16 11:10:37;;;;;;;66.63;42.10;;;5.90;99.90;;;;;;4994092;28;20034;-76
2021/12/16 11:13:09;;;;;;;60.60;40.15;;;6.00;99.90;;;;;;4994251;28;20030;-74
2021/12/16 11:15:38;;;;;;;62.58;41.38;;;5.90;99.90;;;;;;5008600;28;20033;-76
2021/12/16 11:18:04;;;;;;;66.03;41.55;;;6.00;99.90;;;;;;4994011;28;20119;-76
2021/12/16 11:20:35;;;;;;;62.67;41.13;;;6.00;99.90;;;;;;4993627;28;20653;-77
2021/12/16 11:23:01;;;;;;;68.93;41.47;;;5.90;99.90;;;;;;4993045;28;20445;-76
2021/12/16 11:25:52;;;;;;;64.00;44.05;;;5.80;99.90;;;;;;4993901;28;20121;-77
2021/12/16 11:28:21;;;;;;;64.07;44.80;;;5.80;99.90;;;;;;4993606;28;20153;-76
2021/12/16 11:30:49;;;;;;;69.80;44.22;;;5.90;99.90;;;;;;4988894;28;20023;-75
2021/12/16 11:33:26;;;;;;;70.72;46.75;;;6.00;99.90;;;;;;4989010;28;20030;-76
2021/12/16 11:35:56;;;;;;;65.97;46.28;;;6.00;99.90;;;;;;4993155;28;20541;-77
2021/12/16 11:38:27;;;;;;;67.10;44.10;;;6.10;99.90;;;;;;4993565;28;20022;-76
2021/12/16 11:41:24;;;;;;;68.72;47.25;;;6.00;99.90;;;;;;4993743;28;20043;-77
2021/12/16 11:43:52;;;;;;;67.70;46.47;;;6.10;99.90;;;;;;4971895;28;20481;-77
2021/12/16 11:46:24;;;;;;;71.53;47.67;;;5.90;99.90;;;;;;4971787;28;20050;-76
2021/12/16 11:48:53;;;;;;;75.38;50.92;;;6.00;99.90;;;;;;4972129;28;20178;-76
2021/12/16 11:51:38;;;;;;;74.22;48.78;;;5.90;99.90;;;;;;4971964;28;20023;-77
2021/12/16 11:54:16;;;;;;;77.57;51.97;;;5.90;99.90;;;;;;4971584;28;20092;-76
2021/12/16 11:57:00;;;;;;;77.70;49.58;;;5.80;99.90;;;;;;4971306;28;20043;-76
2021/12/16 11:59:29;;;;;;;;;;;5.70;99.90;;;;;;4972126;28;20039;-76
2021/12/16 12:01:56;;;;;;;89.00;56.30;;;5.60;99.90;;;;;;4971549;28;19918;-77
2021/12/16 12:04:34;;;;;;;84.90;57.53;;;5.60;99.90;;;;;;4971487;28;20114;-76
2021/12/16 12:07:13;;;;;;;91.55;62.13;;;5.60;99.90;;;;;;4970748;28;20042;-76
2021/12/16 12:09:52;;;;;;;84.13;58.08;;;5.50;99.90;;;;;;4969723;28;20050;-74
2021/12/16 12:12:46;;;;;;;84.65;57.28;;;5.60;99.90;;;;;;4968845;28;20034;-76
2021/12/16 12:15:15;;;;;;;76.63;55.20;;;5.50;99.90;;;;;;4971062;28;20054;-74
2021/12/16 12:17:48;;;;;;;85.70;59.28;;;5.50;99.90;;;;;;4966140;28;20031;-74
2021/12/16 12:20:14;;;;;;;102.80;63.92;;;5.50;99.90;;;;;;4976381;28;20040;-76
2021/12/16 12:22:40;;;;;;;99.90;65.72;;;5.50;99.90;;;;;;4992831;28;20061;-77
2021/12/16 12:25:07;;;;;;;94.43;63.22;;;5.40;99.90;;;;;;4993816;28;20373;-76
2021/12/16 12:27:33;;;;;;;90.72;60.88;;;5.30;99.90;;;;;;4995605;28;20030;-77
2021/12/16 12:30:03;;;;;;;89.38;57.92;;;5.40;99.90;;;;;;4995491;28;20026;-78
2021/12/16 12:32:33;;;;;;;81.55;55.25;;;5.40;99.90;;;;;;4998787;28;20026;-76
2021/12/16 12:35:10;;;;;;;74.70;53.67;;;5.40;99.90;;;;;;4997283;28;20464;-77
2021/12/16 12:37:40;;;;;;;77.30;50.38;;;5.40;99.90;;;;;;4996988;28;20018;-76
2021/12/16 12:40:13;;;;;;;72.75;52.13;;;5.40;99.90;;;;;;4997122;28;20114;-74
2021/12/16 12:42:41;;;;;;;78.97;50.53;;;5.40;99.90;;;;;;4997254;28;20049;-73
2021/12/16 12:45:10;;;;;;;73.72;49.72;;;5.40;99.90;;;;;;4996965;28;20022;-74
2021/12/16 12:47:39;;;;;;;77.63;52.60;;;5.30;99.90;;;;;;4995967;28;20030;-72
2021/12/16 12:50:32;;;;;;;72.95;50.20;;;5.30;99.90;;;;;;4995535;28;20033;-72
2021/12/16 12:53:15;;;;;;;73.70;50.35;;;5.40;99.90;;;;;;4993733;28;20030;-74
2021/12/16 12:55:41;;;;;;;71.28;50.03;;;5.40;99.90;;;;;;4995342;28;20088;-74
2021/12/16 12:58:11;;;;;;;76.53;50.22;;;5.40;99.90;;;;;;4989190;28;20109;-72
2021/12/16 13:00:40;;;;;;;80.55;51.50;;;5.40;99.90;;;;;;4996437;28;20038;-75
2021/12/16 13:03:16;;;;;;;73.70;49.58;;;5.30;99.90;;;;;;4996804;28;20014;-71
2021/12/16 13:05:51;;;;;;;77.93;54.60;;;5.40;99.90;;;;;;4996667;28;20031;-73
2021/12/16 13:08:29;;;;;;;75.50;51.70;;;5.40;99.90;;;;;;4995322;28;20034;-74
2021/12/16 13:11:09;;;;;;;74.93;49.40;;;5.40;99.90;;;;;;4993147;28;20034;-72
2021/12/16 13:13:45;;;;;;;68.63;47.58;;;5.40;99.90;;;;;;4982881;28;20058;-74
2021/12/16 13:24:53;;;;;;;72.93;48.15;;;5.20;99.90;;;;;;4995976;28;20026;-73
2021/12/16 13:27:37;;;;;;;67.63;47.15;;;5.30;99.90;;;;;;4988541;28;20584;-72
2021/12/16 13:32:43;;;;;;;78.88;53.97;;;5.30;99.90;;;;;;4994967;28;20034;-76
2021/12/16 13:35:34;;;;;;;78.35;51.50;;;5.30;99.90;;;;;;4995133;28;20441;-75
2021/12/16 13:38:06;;;;;;;78.15;52.22;;;5.30;99.90;;;;;;4992628;28;20065;-74
2021/12/16 13:40:37;;;;;;;81.30;52.00;;;5.20;99.90;;;;;;4993089;28;20062;-76
2021/12/16 13:43:25;;;;;;;76.15;51.33;;;5.20;99.90;;;;;;4994590;28;20358;-73
2021/12/16 14:03:16;;;;;;;85.80;53.80;;;5.10;99.90;;;;;;4994299;28;20169;-75
2021/12/16 14:05:56;;;;;;;84.30;55.45;;;5.10;99.90;;;;;;4992797;28;20461;-74
2021/12/16 14:08:50;;;;;;;93.15;54.67;;;5.10;99.90;;;;;;4993686;28;20488;-76
2021/12/16 14:17:42;;;;;;;102.60;62.67;;;5.20;99.90;;;;;;4994285;28;20030;-74
2021/12/16 14:23:09;;;;;;;102.18;61.40;;;5.20;99.90;;;;;;4993544;28;20026;-72
2021/12/16 14:31:10;;;;;;;101.47;63.28;;;5.20;99.90;;;;;;4993360;28;20473;-74
2021/12/16 14:39:13;;;;;;;91.45;59.15;;;5.10;99.90;;;;;;4990263;28;20022;-72
2021/12/16 14:47:00;;;;;;;99.20;65.47;;;5.10;99.90;;;;;;4991917;28;20061;-73
2021/12/16 14:49:39;;;;;;;106.97;70.30;;;5.10;99.90;;;;;;4988369;28;20057;-73
2021/12/16 14:52:13;;;;;;;121.30;75.35;;;5.00;99.90;;;;;;5003267;28;20104;-73
2021/12/16 14:54:54;;;;;;;97.15;62.72;;;5.10;99.90;;;;;;4992150;28;20535;-72
2021/12/16 14:57:22;;;;;;;107.18;68.65;;;5.00;99.90;;;;;;4993287;28;20070;-72
2021/12/16 14:59:48;;;;;;;92.18;59.95;;;5.00;99.90;;;;;;4990904;28;20033;-71
2021/12/16 15:02:16;;;;;;;95.15;64.43;;;5.00;99.90;;;;;;4993413;28;20117;-73
2021/12/16 15:04:42;;;;;;;94.20;60.33;;;5.00;99.90;;;;;;4992232;28;20015;-72
2021/12/16 15:07:11;;;;;;;93.22;65.75;;;5.00;99.90;;;;;;4993689;28;20036;-73
2021/12/16 15:09:39;;;;;;;102.72;69.35;;;4.90;99.90;;;;;;4993304;28;20046;-73
2021/12/16 15:31:43;;;;;;;112.30;72.38;;;5.00;99.90;;;;;;4992246;28;20030;-73
2021/12/16 15:45:17;;;;;;;90.28;61.72;;;4.90;99.90;;;;;;4988409;28;20046;-74
2021/12/16 15:47:48;;;;;;;104.15;65.95;;;4.90;99.90;;;;;;4991182;28;20460;-72
2021/12/16 15:50:19;;;;;;;105.30;69.40;;;4.90;99.90;;;;;;4991606;28;20045;-73
2021/12/16 15:52:48;;;;;;;95.25;64.22;;;4.90;99.90;;;;;;4992329;28;20034;-73
2021/12/16 15:55:43;;;;;;;97.05;65.05;;;5.00;99.90;;;;;;5008231;28;20089;-73
2021/12/16 15:58:29;;;;;;;98.97;63.45;;;4.90;99.90;;;;;;4982493;28;20030;-73
2021/12/16 16:01:00;;;;;;;96.53;66.10;;;5.00;99.90;;;;;;4988790;28;20113;-74
2021/12/16 16:03:28;;;;;;;103.47;68.10;;;4.90;99.90;;;;;;4991417;28;20113;-74
2021/12/16 16:06:00;;;;;;;102.07;66.70;;;5.00;99.90;;;;;;4990944;28;20049;-76
2021/12/16 16:08:29;;;;;;;96.97;63.85;;;5.00;99.90;;;;;;4988714;28;20048;-77
2021/12/16 16:11:00;;;;;;;89.15;61.70;;;5.00;99.90;;;;;;4990857;28;20054;-74
2021/12/16 16:13:30;;;;;;;92.63;61.40;;;5.00;99.90;;;;;;4991714;28;20023;-72
2021/12/16 16:16:01;;;;;;;92.28;64.13;;;5.10;99.90;;;;;;4990437;28;20027;-75
2021/12/16 16:21:21;;;;;;;95.47;63.85;;;5.00;99.90;;;;;;4991727;28;20415;-78
2021/12/16 16:23:54;;;;;;;102.10;65.93;;;5.00;99.90;;;;;;4986882;28;20046;-74
2021/12/16 16:26:24;;;;;;;111.38;68.13;;;5.00;99.90;;;;;;4990830;28;20080;-76
2021/12/16 16:29:02;;;;;;;99.43;69.90;;;5.00;99.90;;;;;;4990447;28;20046;-78
2021/12/16 16:31:31;;;;;;;90.68;62.42;;;5.00;99.90;;;;;;4990803;28;20113;-78
2021/12/16 16:33:58;;;;;;;92.80;63.15;;;5.00;99.90;;;;;;4992955;28;20057;-75
2021/12/16 16:36:25;;;;;;;92.18;65.28;;;5.00;99.90;;;;;;4992856;28;20038;-77
2021/12/16 16:38:54;;;;;;;98.97;68.15;;;5.00;99.90;;;;;;4992448;28;20481;-76
2021/12/16 16:41:24;;;;;;;100.70;64.93;;;5.00;99.90;;;;;;4993282;28;20050;-75
2021/12/16 16:44:04;;;;;;;94.63;65.20;;;5.00;99.90;;;;;;4992817;28;20109;-75
2021/12/16 16:46:38;;;;;;;97.97;66.95;;;5.00;99.90;;;;;;4992406;28;20323;-76
2021/12/16 16:49:08;;;;;;;92.20;64.38;;;5.00;99.90;;;;;;4992217;28;20423;-77